Weather

DAILY 7 DAY TOTAL
onrain

Note: Some stations are located near irrigated fields and may also report irrigation

Alliston Mount Forest Blyth Guelph Grand Bend Strathroy Woodstock Belmont Simcoe Leamington Chatham West Lorne






Rockwood-Bayer - Historical Weather Data
Date Max Temp (°C) Min Temp (°C) Avg Temp (°C) Rain (mm) 7Day Rain(mm) Total Rain(mm) Avg RH (%)
10/21/2018 3.4 -0.8 1.1 0.0 4.6 409.8 73.7
10/20/2018 10.5 2.0 6.6 1.0 4.6 409.8 74.9
10/19/2018 14.0 1.3 7.4 0.0 4.8 408.8 67.1
10/18/2018 6.4 -2.3 1.5 0.0 5.0 408.8 75.3
10/17/2018 7.5 -0.3 3.8 0.4 5.4 408.8 77.5
10/16/2018 10.0 1.1 5.0 0.0 5.0 408.4 65.3
10/15/2018 9.9 2.0 6.3 3.2 5.2 408.4 85.7
10/14/2018 13.2 -0.2 6.4 0.0 5.4 405.2 77.5
10/13/2018 6.8 -0.8 4.0 1.2 9.2 405.2 82.7
10/12/2018 7.8 3.6 5.3 0.2 10.4 404.0 76.5
10/11/2018 19.4 6.6 14.1 0.4 10.2 403.8 81.5
10/10/2018 25.3 16.4 20.5 0.0 12.8 403.4 82.3
10/9/2018 27.3 11.6 19.6 0.2 12.8 403.4 86.4
10/8/2018 14.7 9.1 11.4 3.4 21.0 403.2 99.7
10/7/2018 15.5 10.1 12.1 3.8 32.2 399.8 96.8
10/6/2018 19.4 8.2 13.1 2.4 34.4 396.0 97.6
10/5/2018 10.0 2.6 6.6 0.0 32.2 393.6 82.9
10/4/2018 21.1 4.1 14.0 3.0 35.4 393.6 82.0
10/3/2018 15.7 8.4 11.2 0.0 32.4 390.6 93.4
10/2/2018 13.5 7.2 9.7 8.4 34.4 390.6 99.8
10/1/2018 8.9 5.7 7.3 14.6 38.2 382.2 98.3
9/30/2018 9.9 6.8 8.2 6.0 25.2 367.6 90.5
9/29/2018 14.1 5.5 9.4 0.2 19.2 361.6 75.4
9/28/2018 19.6 6.9 11.6 3.2 19.0 361.4 83.7
9/27/2018 16.0 5.5 10.8 0.0 32.4 358.2 81.9
9/26/2018 20.5 7.7 15.8 2.0 32.4 358.2 81.3
9/25/2018 19.6 14.5 17.2 12.2 30.4 356.2 98.3
9/24/2018 16.2 8.3 12.3 1.6 18.2 344.0 90.3
9/23/2018 19.9 3.1 11.0 0.0 16.8 342.4 73.1
9/22/2018 15.8 6.9 11.0 0.0 16.8 342.4 73.8
9/21/2018 29.5 11.9 21.1 16.6 16.8 342.4 77.8
9/20/2018 18.2 10.5 14.6 0.0 0.2 325.8 86.7
9/19/2018 23.4 10.7 16.0 0.0 0.4 325.8 75.1
9/18/2018 26.2 13.2 19.4 0.0 0.4 325.8 83.0
9/17/2018 27.7 17.1 21.3 0.2 0.6 325.8 83.5
9/16/2018 29.4 17.2 22.4 0.0 13.8 325.6 80.3
9/15/2018 29.4 16.0 22.2 0.0 13.8 325.6 81.3
9/14/2018 28.3 16.3 21.5 0.0 13.8 325.6 82.3
9/13/2018 25.3 13.7 18.7 0.2 13.8 325.6 84.6
9/12/2018 22.7 10.2 16.5 0.0 14.8 325.4 86.1
9/11/2018 22.9 11.9 16.0 0.2 15.2 325.4 86.0
9/10/2018 13.0 9.6 11.5 13.4 15.0 325.2 96.3
9/9/2018 14.7 7.6 10.5 0.0 1.6 311.8 72.6
9/8/2018 15.6 8.3 12.4 0.0 4.2 311.8 66.8
9/7/2018 23.3 12.4 16.7 0.0 4.4 311.8 73.0
9/6/2018 25.1 14.3 19.8 1.2 4.4 311.8 82.5
9/5/2018 31.9 18.8 25.2 0.4 3.2 310.6 78.4
9/4/2018 29.2 16.4 22.5 0.0 4.6 310.2 83.3
9/3/2018 29.5 19.1 23.9 0.0 4.6 310.2 80.5
9/2/2018 28.0 20.5 23.2 2.6 5.2 310.2 86.2
9/1/2018 28.4 11.5 20.0 0.2 2.6 307.6 85.0
8/31/2018 24.3 10.2 16.2 0.0 20.6 307.4 82.5
8/30/2018 20.2 10.8 15.2 0.0 20.6 307.4 83.7
8/29/2018 25.5 15.5 21.7 1.8 20.6 307.4 85.1
8/28/2018 29.5 21.9 24.7 0.0 19.8 305.6 79.2
8/27/2018 27.3 16.9 21.9 0.6 43.4 305.6 90.3
8/26/2018 26.3 18.1 21.7 0.0 42.8 305.0 85.7
8/25/2018 22.4 16.8 19.2 18.2 42.8 305.0 85.6
8/24/2018 24.4 12.7 18.6 0.0 25.8 286.8 73.0
8/23/2018 24.2 10.8 17.4 0.0 40.2 286.8 71.8
8/22/2018 19.1 11.3 16.8 1.0 55.2 286.8 81.6
8/21/2018 23.2 17.5 19.9 23.6 54.2 285.8 95.6
8/20/2018 25.1 14.4 19.4 0.0 30.6 262.2 86.8
8/19/2018 25.8 13.7 19.0 0.0 30.6 262.2 80.3
8/18/2018 23.4 16.8 20.1 1.2 30.6 262.2 82.5
8/17/2018 25.8 19.4 21.7 14.4 31.8 261.0 93.5
8/16/2018 27.6 15.7 21.3 15.0 17.4 246.6 89.8
8/15/2018 28.7 15.7 22.2 0.0 3.0 231.6 74.5
8/14/2018 29.0 15.8 22.3 0.0 7.4 231.6 64.8
8/13/2018 27.3 14.8 21.1 0.0 7.4 231.6 71.0
8/12/2018 27.5 14.2 20.6 0.0 10.6 231.6 73.0
8/11/2018 27.0 12.3 19.2 2.4 10.6 231.6 72.2
8/10/2018 25.2 14.7 19.8 0.0 8.4 229.2 72.7
8/9/2018 26.4 13.7 19.8 0.6 8.4 229.2 82.4
8/8/2018 25.6 16.2 20.2 4.4 7.8 228.6 88.2
8/7/2018 28.3 18.3 22.2 0.0 3.4 224.2 82.0
8/6/2018 29.3 20.1 23.7 3.2 3.4 224.2 80.2
8/5/2018 30.0 15.6 23.4 0.0 0.2 221.0 74.8
8/4/2018 27.9 15.8 22.1 0.2 0.2 221.0 74.6
8/3/2018 27.1 15.1 21.2 0.0 1.2 220.8 79.4
8/2/2018 25.3 15.4 20.3 0.0 6.4 220.8 81.0
8/1/2018 24.5 17.8 20.7 0.0 26.8 220.8 87.5
7/31/2018 25.2 14.1 20.0 0.0 27.0 220.8 81.0
7/30/2018 26.5 13.3 19.3 0.0 41.4 220.8 78.6
7/29/2018 25.0 10.5 17.7 0.0 41.4 220.8 77.3
7/28/2018 19.1 12.6 15.8 1.2 52.8 220.8 87.6
7/27/2018 23.2 13.3 18.1 5.2 52.2 219.6 83.2
7/26/2018 26.0 13.5 19.1 20.4 47.4 214.4 83.5
7/25/2018 26.2 16.5 21.2 0.2 27.0 194.0 81.5
7/24/2018 26.8 18.2 21.9 14.4 26.8 193.8 89.4
7/23/2018 26.1 17.1 21.7 0.0 12.4 179.4 85.4
7/22/2018 20.2 14.6 17.2 11.4 31.4 179.4 92.7
7/21/2018 25.4 18.7 21.4 0.6 20.0 168.0 74.7
7/20/2018 28.3 14.4 21.8 0.4 19.4 167.4 70.3
7/19/2018 26.4 8.7 18.6 0.0 19.0 167.0 61.0
7/18/2018 23.8 11.8 17.7 0.0 19.0 167.0 68.3
7/17/2018 23.2 14.2 19.3 0.0 19.0 167.0 72.9
7/16/2018 31.2 17.9 22.3 19.0 19.0 167.0 85.5
7/15/2018 31.3 17.1 24.3 0.0 0.0 148.0 74.2
7/14/2018 25.8 17.5 22.0 0.0 0.0 148.0 71.8
7/13/2018 28.4 17.3 23.2 0.0 0.0 148.0 54.1
7/12/2018 28.4 11.5 21.1 0.0 0.0 148.0 54.4
7/11/2018 25.4 12.4 19.6 0.0 10.4 148.0 56.9
7/10/2018 26.6 15.7 21.2 0.0 10.4 148.0 59.0
7/9/2018 29.0 12.0 21.6 0.0 10.4 148.0 57.5
7/8/2018 27.5 11.6 20.2 0.0 10.4 148.0 57.7
7/7/2018 25.1 9.6 18.4 0.0 10.4 148.0 55.1
7/6/2018 21.4 11.8 17.2 0.0 10.4 148.0 63.9
7/5/2018 31.8 19.2 24.6 10.4 10.4 148.0 74.6
7/4/2018 31.7 16.4 24.8 0.0 0.2 137.6 57.8
7/3/2018 30.1 15.0 23.2 0.0 7.8 137.6 57.3
7/2/2018 29.6 16.9 24.8 0.0 7.8 137.6 74.0
7/1/2018 31.6 20.9 26.4 0.0 7.8 137.6 70.1
6/30/2018 32.5 19.0 25.7 0.0 21.6 137.6 76.7
6/29/2018 30.4 16.5 23.7 0.0 30.0 137.6 68.2
6/28/2018 26.7 17.8 21.7 0.2 34.0 137.6 78.0
6/27/2018 21.2 13.7 17.8 7.6 33.8 137.4 91.3
6/26/2018 23.1 8.6 16.3 0.0 26.2 129.8 57.6
6/25/2018 21.7 11.1 16.2 0.0 26.2 129.8 61.8
6/24/2018 19.6 14.3 16.5 13.8 27.6 129.8 92.8
6/23/2018 18.8 14.8 16.3 8.4 13.8 116.0 97.3
6/22/2018 23.0 9.3 15.7 4.0 5.4 107.6 62.1
6/21/2018 23.9 10.9 17.7 0.0 1.4 103.6 62.9
6/20/2018 25.9 13.1 18.4 0.0 1.4 103.6 64.9
6/19/2018 24.7 14.7 18.9 0.0 2.8 103.6 66.2
6/18/2018 29.2 19.5 24.2 1.4 2.8 103.6 76.7
6/17/2018 31.9 14.2 24.2 0.0 1.4 102.2 67.7
6/16/2018 26.8 11.6 19.9 0.0 1.4 102.2 60.7
6/15/2018 25.5 10.3 18.4 0.0 1.4 102.2 54.3
6/14/2018 22.4 11.7 17.1 0.0 1.4 102.2 54.2
6/13/2018 26.5 14.8 20.2 1.4 1.4 102.2 73.4
6/12/2018 26.3 8.2 18.5 0.0 0.0 100.8 62.8
6/11/2018 22.5 8.9 16.0 0.0 0.8 100.8 49.7
6/10/2018 22.4 11.0 17.1 0.0 2.8 100.8 55.9
6/9/2018 21.4 10.3 16.4 0.0 21.6 100.8 62.8
6/8/2018 24.3 9.8 17.3 0.0 21.6 100.8 67.9
6/7/2018 22.4 10.1 16.1 0.0 21.6 100.8 73.6
6/6/2018 16.0 6.8 10.9 0.0 31.2 100.8 77.3
6/5/2018 11.5 8.3 9.5 0.8 31.2 100.8 83.5
6/4/2018 16.3 9.2 13.5 2.0 30.4 100.0 82.8
6/3/2018 22.0 11.9 16.5 18.8 28.4 98.0 85.7
6/2/2018 22.5 10.8 15.5 0.0 9.6 79.2 78.6
6/1/2018 26.8 14.8 21.0 0.0 9.6 79.2 81.2
5/31/2018 27.5 19.6 22.3 9.6 9.6 79.2 83.0
5/30/2018 29.2 16.0 22.6 0.0 1.0 69.6 58.6
5/29/2018 27.1 15.6 21.6 0.0 1.0 69.6 66.8
5/28/2018 30.7 15.0 23.2 0.0 4.0 69.6 65.2
5/27/2018 28.7 13.7 20.4 0.0 4.0 69.6 78.8
5/26/2018 28.7 16.4 21.4 0.0 4.4 69.6 60.0
5/25/2018 28.8 12.9 21.5 0.0 16.0 69.6 48.3
5/24/2018 27.5 10.0 19.6 1.0 16.0 69.6 52.8
5/23/2018 24.2 8.9 17.3 0.0 15.0 68.6 65.0
5/22/2018 16.7 9.7 13.4 3.0 15.0 68.6 89.9
5/21/2018 22.6 3.8 14.1 0.0 21.4 65.6 57.3
5/20/2018 19.0 8.5 14.0 0.4 21.4 65.6 80.8
5/19/2018 18.9 8.4 13.4 11.6 21.0 65.2 83.6
5/18/2018 16.6 7.4 12.4 0.0 9.6 53.6 38.6
5/17/2018 24.3 11.5 17.5 0.0 9.6 53.6 58.8
5/16/2018 23.8 6.9 15.8 0.0 14.0 53.6 55.4
5/15/2018 20.2 10.0 15.4 9.4 14.0 53.6 82.8
5/14/2018 22.5 7.7 15.5 0.0 4.6 44.2 71.7
5/13/2018 20.4 5.7 12.9 0.0 4.6 44.2 51.4
5/12/2018 17.0 5.3 9.9 0.2 8.0 44.2 53.0
5/11/2018 12.0 1.4 6.7 0.0 14.6 44.0 57.4
5/10/2018 17.0 2.6 13.5 4.4 26.4 44.0 75.3
5/9/2018 25.4 7.4 16.9 0.0 39.6 39.6 55.5
5/8/2018 22.1 5.0 14.2 0.0 39.6 39.6 45.8
5/7/2018 17.1 7.7 12.4 0.0 39.6 39.6 51.3
5/6/2018 18.8 9.6 13.1 3.4 39.6 39.6 66.2
5/5/2018 21.9 5.8 13.3 6.8 36.2 36.2 76.1
5/4/2018 22.3 7.0 12.1 11.8 29.4 29.4 88.5
5/3/2018 18.6 11.9 16.0 17.6 18.6 17.6 93.8
5/2/2018 25.5 13.1 19.8 0.0 1.4 0.0 47.9
5/1/2018 26.1 6.2 16.0 0.0 17.4 0.0 39.4